Aviation Digital Data Service (ADDS)

Output produced by METARs form (2315 UTC 15 February 2019)
found at http://www.aviationweather.gov/metar/data/
 
Forecast for: HESN (ASWAN (CIV/MIL) , EG)
Text: TAF HESN 152300Z 1600/1706 32012KT 8000 NSC
Forecast period: 0000 UTC 16 February 2019 to 0600 UTC 17 February 2019
Forecast type: FROM: standard forecast or significant change
Winds: from the NW (320 degrees) at 14 MPH (12 knots; 6.2 m/s)
Visibility: 5 miles (8 km)
Ceiling: unknown
Clouds: missing
Weather: no significant weather forecast for this period
Text: PROB30
Forecast period: 0300 to 0900 UTC 16 February 2019
Forecast type: TEMPORARY: The following changes expected for less than half the time period
Visibility: 3 miles (5 km)
Ceiling: at least 12,000 feet AGL
Clouds: few clouds at 2500 feet AGL
Weather: SA  (sand)